Time;durP1;ratioP1;P1;durP2;ratioP2;P2;SDS_P1;SDS_P2;PMS_P1;PMS_P2;Temp;Humidity;BMP_temperature;BMP_pressure;BME280_temperature;BME280_humidity;BME280_pressure;Samples;Min_cycle;Max_cycle;Signal;HPM_P1;HPM_P2
2021/08/29 00:08:17;;;;;;;16.75;9.45;;;26.30;31.60;;;;;;20978866;27;81840;-74
2021/08/29 00:18:20;;;;;;;14.40;8.85;;;26.20;32.20;;;;;;20977070;27;80895;-73
2021/08/29 00:28:22;;;;;;;20.58;9.18;;;26.10;32.70;;;;;;20959067;27;80509;-72
2021/08/29 00:38:25;;;;;;;15.25;9.10;;;25.90;33.30;;;;;;20958294;27;80721;-72
2021/08/29 00:48:28;;;;;;;20.45;9.80;;;25.70;33.60;;;;;;20957095;27;79948;-72
2021/08/29 00:58:30;;;;;;;15.23;8.93;;;25.60;33.70;;;;;;20975285;27;80437;-73
2021/08/29 01:08:38;;;;;;;14.45;7.78;;;25.50;33.70;;;;;;20956347;27;81557;-72
2021/08/29 01:18:40;;;;;;;19.48;9.23;;;25.40;34.80;;;;;;20955621;27;80137;-71
2021/08/29 01:28:59;;;;;;;18.23;9.60;;;25.20;35.30;;;;;;20972627;27;80774;-73
2021/08/29 01:39:03;;;;;;;14.73;8.52;;;25.00;35.10;;;;;;20953866;27;79986;-73
2021/08/29 01:49:07;;;;;;;16.83;8.15;;;24.50;37.20;;;;;;20970577;27;81968;-68
2021/08/29 01:59:15;;;;;;;16.43;10.00;;;24.40;36.80;;;;;;20953037;27;80138;-68
2021/08/29 02:09:39;;;;;;;25.58;9.43;;;24.10;36.90;;;;;;20958413;27;82531;-65
2021/08/29 02:20:00;;;;;;;14.63;8.70;;;23.90;37.10;;;;;;20968253;27;83449;-71
2021/08/29 02:30:16;;;;;;;14.00;8.68;;;23.80;36.90;;;;;;20952896;27;80075;-66
2021/08/29 02:40:44;;;;;;;15.02;8.32;;;23.80;37.00;;;;;;20968468;27;80654;-69
2021/08/29 02:50:50;;;;;;;17.15;8.90;;;23.70;37.00;;;;;;20968026;27;79946;-66
2021/08/29 03:00:58;;;;;;;15.40;7.97;;;23.60;37.00;;;;;;20966306;27;80786;-71
2021/08/29 03:11:04;;;;;;;16.13;8.32;;;23.50;37.00;;;;;;20967332;27;82003;-69
2021/08/29 03:21:26;;;;;;;14.80;7.90;;;23.40;37.40;;;;;;20951088;27;80118;-68
2021/08/29 03:31:33;;;;;;;22.48;9.48;;;23.30;38.70;;;;;;20948180;27;80046;-71
2021/08/29 03:41:57;;;;;;;15.17;7.80;;;23.20;41.90;;;;;;20965260;27;80391;-71
2021/08/29 03:52:19;;;;;;;14.05;8.18;;;22.90;41.10;;;;;;20965570;27;81953;-71
2021/08/29 04:02:34;;;;;;;15.80;8.32;;;22.80;40.00;;;;;;20947494;27;80594;-70
2021/08/29 04:12:48;;;;;;;17.05;7.57;;;22.60;39.30;;;;;;20976076;27;81687;-69
2021/08/29 04:23:00;;;;;;;;;;;22.60;41.00;;;;;;20961335;27;80794;-72
2021/08/29 04:33:19;;;;;;;16.58;8.18;;;22.40;40.10;;;;;;20998741;27;81286;-71
2021/08/29 04:43:30;;;;;;;14.77;8.93;;;22.40;40.00;;;;;;20959552;27;80119;-71
2021/08/29 04:53:45;;;;;;;13.48;8.10;;;22.30;40.70;;;;;;20975801;27;80786;-68
2021/08/29 05:03:52;;;;;;;17.05;7.97;;;22.20;40.20;;;;;;20957279;27;81031;-67
2021/08/29 05:13:58;;;;;;;15.88;8.48;;;22.30;39.50;;;;;;20956830;27;80757;-71
2021/08/29 05:24:04;;;;;;;18.02;8.50;;;22.00;40.30;;;;;;20973885;27;80064;-73
2021/08/29 05:34:07;;;;;;;14.55;8.00;;;22.00;45.10;;;;;;20973304;27;81883;-71
2021/08/29 05:44:10;;;;;;;16.67;7.68;;;21.90;42.20;;;;;;20953764;27;80747;-73
2021/08/29 05:54:13;;;;;;;13.50;7.32;;;21.70;41.40;;;;;;20971780;27;80759;-70
2021/08/29 06:04:16;;;;;;;13.25;7.20;;;21.60;42.00;;;;;;20952158;27;80741;-66
2021/08/29 06:14:19;;;;;;;15.73;7.68;;;21.50;42.40;;;;;;20952992;27;81757;-72
2021/08/29 06:24:24;;;;;;;14.55;7.07;;;21.50;41.40;;;;;;20952178;27;81854;-72
2021/08/29 06:34:28;;;;;;;19.40;7.35;;;21.50;42.70;;;;;;20968014;27;80834;-70
2021/08/29 06:44:31;;;;;;;15.35;7.38;;;21.60;41.50;;;;;;20950613;27;79876;-65
2021/08/29 06:54:35;;;;;;;15.77;7.20;;;21.70;41.20;;;;;;20950285;27;80710;-67
2021/08/29 07:04:42;;;;;;;16.50;7.70;;;22.00;40.80;;;;;;20966588;27;80923;-70
2021/08/29 07:14:44;;;;;;;13.18;6.97;;;22.20;40.60;;;;;;20967055;27;79919;-68
2021/08/29 07:24:47;;;;;;;10.30;5.45;;;22.50;40.70;;;;;;20966393;27;80973;-70
2021/08/29 07:34:49;;;;;;;10.80;5.30;;;22.60;39.00;;;;;;20954867;27;80879;-71
2021/08/29 07:44:54;;;;;;;10.13;5.65;;;22.90;38.10;;;;;;20974667;27;80812;-71
2021/08/29 07:54:58;;;;;;;10.95;5.03;;;23.20;38.00;;;;;;20980986;27;82141;-72
2021/08/29 08:05:04;;;;;;;11.52;5.22;;;23.60;36.50;;;;;;20977602;27;80929;-72
2021/08/29 08:15:08;;;;;;;14.48;5.63;;;24.10;35.30;;;;;;20962633;27;81783;-74
2021/08/29 08:25:16;;;;;;;9.35;5.18;;;24.50;34.40;;;;;;20979513;27;80105;-71
2021/08/29 08:35:18;;;;;;;10.15;5.50;;;24.90;34.10;;;;;;20978681;27;80423;-67
2021/08/29 08:45:20;;;;;;;14.65;6.15;;;25.40;32.90;;;;;;20959310;27;80772;-73
2021/08/29 08:55:24;;;;;;;14.40;5.90;;;25.80;31.90;;;;;;20976862;27;80965;-73
2021/08/29 09:05:28;;;;;;;7.97;4.82;;;25.90;31.70;;;;;;20977076;27;81471;-67
2021/08/29 09:15:32;;;;;;;12.75;6.28;;;26.30;31.50;;;;;;20975621;27;80870;-73
2021/08/29 09:25:41;;;;;;;10.55;5.82;;;26.50;31.70;;;;;;20974282;27;80756;-73
2021/08/29 09:35:42;;;;;;;11.02;5.88;;;27.20;30.60;;;;;;20973951;27;81004;-74
2021/08/29 09:45:46;;;;;;;11.63;5.68;;;28.10;30.20;;;;;;20972493;27;80704;-66
2021/08/29 09:55:49;;;;;;;11.77;6.38;;;29.00;29.60;;;;;;20972123;27;79974;-68
2021/08/29 10:06:25;;;;;;;13.20;6.75;;;29.70;27.90;;;;;;20970813;27;80108;-73
2021/08/29 10:16:27;;;;;;;15.70;6.85;;;30.90;27.20;;;;;;20952882;27;81895;-75
2021/08/29 10:26:30;;;;;;;12.50;7.30;;;32.00;25.30;;;;;;20971602;27;81474;-75
2021/08/29 10:36:31;;;;;;;15.65;6.57;;;33.10;23.80;;;;;;20969773;27;80884;-72
2021/08/29 10:46:34;;;;;;;14.88;7.95;;;35.40;21.40;;;;;;20968899;27;80322;-68
2021/08/29 10:56:36;;;;;;;11.13;7.13;;;37.10;19.50;;;;;;20967966;27;80916;-67
2021/08/29 11:06:54;;;;;;;10.15;6.63;;;39.60;17.80;;;;;;20945800;27;81090;-66
2021/08/29 11:17:19;;;;;;;11.10;6.55;;;41.60;17.00;;;;;;20972948;27;80744;-69
2021/08/29 11:27:44;;;;;;;14.05;5.90;;;43.90;15.90;;;;;;20981405;27;81250;-69
2021/08/29 11:38:03;;;;;;;8.93;5.93;;;46.40;14.80;;;;;;20981641;27;80862;-69
2021/08/29 11:48:06;;;;;;;11.07;6.10;;;48.10;14.20;;;;;;20963263;27;79982;-69
2021/08/29 11:58:28;;;;;;;8.25;4.90;;;49.00;13.40;;;;;;20950222;27;80811;-69
2021/08/29 12:08:38;;;;;;;9.23;4.75;;;49.70;13.60;;;;;;20980715;27;80781;-67
2021/08/29 12:18:41;;;;;;;8.38;4.28;;;49.60;13.60;;;;;;20960305;27;80753;-68
2021/08/29 12:29:00;;;;;;;5.63;4.32;;;51.00;13.70;;;;;;20979177;27;82478;-68
2021/08/29 12:39:11;;;;;;;5.38;4.25;;;44.40;16.90;;;;;;20960356;27;79830;-74
2021/08/29 12:49:13;;;;;;;4.28;3.35;;;44.50;17.70;;;;;;20978639;27;81017;-73
2021/08/29 12:59:25;;;;;;;5.25;3.58;;;51.50;14.30;;;;;;20977531;27;80482;-67
2021/08/29 13:09:28;;;;;;;5.05;3.85;;;47.80;15.80;;;;;;20959472;27;80719;-72
2021/08/29 13:19:30;;;;;;;5.82;4.47;;;48.40;15.40;;;;;;20958853;27;81983;-67
2021/08/29 13:29:37;;;;;;;5.95;3.10;;;43.80;18.00;;;;;;20957242;27;80020;-71
2021/08/29 13:39:42;;;;;;;4.55;3.40;;;44.20;17.90;;;;;;20956531;27;81809;-70
2021/08/29 13:49:44;;;;;;;5.60;3.67;;;43.70;17.90;;;;;;20973965;27;80051;-72
2021/08/29 13:59:46;;;;;;;6.65;2.90;;;46.30;16.20;;;;;;20973858;27;80032;-69
2021/08/29 14:09:47;;;;;;;5.28;3.20;;;46.10;17.50;;;;;;20973494;27;80022;-66
2021/08/29 14:19:49;;;;;;;4.20;2.53;;;43.40;18.70;;;;;;20970651;27;80703;-72
2021/08/29 14:29:51;;;;;;;7.45;4.18;;;43.20;18.40;;;;;;20953676;27;80068;-70
2021/08/29 14:39:52;;;;;;;3.92;2.83;;;47.70;15.90;;;;;;20952372;27;80702;-72
2021/08/29 14:49:53;;;;;;;4.03;2.90;;;48.00;15.80;;;;;;20949990;27;80707;-72
2021/08/29 14:59:55;;;;;;;4.60;2.85;;;47.90;15.70;;;;;;20969182;27;80741;-72
2021/08/29 15:09:57;;;;;;;6.28;3.72;;;50.40;14.50;;;;;;20951524;27;80394;-73
2021/08/29 15:19:59;;;;;;;3.88;3.00;;;53.60;13.20;;;;;;20951971;27;80778;-72
2021/08/29 15:30:01;;;;;;;7.13;2.90;;;47.80;15.30;;;;;;20950607;27;79945;-69
2021/08/29 15:40:06;;;;;;;6.63;3.33;;;42.10;18.50;;;;;;20969353;27;80859;-74
2021/08/29 15:50:08;;;;;;;5.43;3.47;;;40.90;19.40;;;;;;20967993;27;80486;-72
2021/08/29 16:00:10;;;;;;;4.60;2.53;;;45.80;16.20;;;;;;20948667;27;80617;-74
2021/08/29 16:10:13;;;;;;;8.65;3.35;;;45.10;17.00;;;;;;20969663;27;80916;-73
2021/08/29 16:20:15;;;;;;;4.05;2.50;;;41.20;19.00;;;;;;20904801;27;80460;-67
2021/08/29 16:30:17;;;;;;;2.88;2.22;;;39.90;20.50;;;;;;20932419;27;81781;-72
2021/08/29 16:40:18;;;;;;;3.75;2.10;;;40.70;19.70;;;;;;20978770;27;80042;-71
2021/08/29 16:50:20;;;;;;;2.78;1.90;;;38.10;21.90;;;;;;20959414;27;80150;-70
2021/08/29 17:00:21;;;;;;;69.93;45.22;;;35.80;23.80;;;;;;20977063;27;81082;-68
2021/08/29 17:10:23;;;;;;;4.85;1.90;;;34.80;24.70;;;;;;20931998;27;82689;-70
2021/08/29 17:20:24;;;;;;;2.95;1.80;;;34.30;25.30;;;;;;20971793;27;83291;-70
2021/08/29 17:30:26;;;;;;;3.40;1.67;;;33.60;26.10;;;;;;20922107;27;80149;-70
2021/08/29 17:40:27;;;;;;;3.28;1.90;;;33.50;26.30;;;;;;20881401;27;80643;-69
2021/08/29 17:50:29;;;;;;;4.22;1.48;;;35.60;24.30;;;;;;20890804;28;80093;-70
2021/08/29 18:00:30;;;;;;;6.40;1.52;;;34.40;25.50;;;;;;20928085;27;81829;-70
2021/08/29 18:10:32;;;;;;;4.97;1.92;;;33.20;26.60;;;;;;20917165;27;80652;-68
2021/08/29 18:20:34;;;;;;;6.57;1.45;;;32.30;27.60;;;;;;20899005;27;80747;-69
2021/08/29 18:30:35;;;;;;;3.40;1.60;;;31.80;28.50;;;;;;20925387;27;80766;-71
2021/08/29 18:40:40;;;;;;;3.22;1.85;;;31.40;28.90;;;;;;20951551;27;80833;-64
2021/08/29 18:50:42;;;;;;;2.88;1.70;;;31.00;29.60;;;;;;20966902;27;80489;-65
2021/08/29 19:00:44;;;;;;;5.85;2.10;;;30.80;29.90;;;;;;20932370;27;81737;-69
2021/08/29 19:10:45;;;;;;;4.78;2.40;;;30.50;30.50;;;;;;20940187;27;81200;-64
2021/08/29 19:20:47;;;;;;;4.97;2.30;;;30.30;31.20;;;;;;20942157;27;82066;-66
2021/08/29 19:30:49;;;;;;;5.25;2.00;;;30.00;31.80;;;;;;20941212;27;81090;-67
2021/08/29 19:40:50;;;;;;;4.85;2.25;;;29.70;32.60;;;;;;20951021;27;80249;-74
2021/08/29 19:50:52;;;;;;;4.68;2.58;;;29.50;33.10;;;;;;20938682;27;81321;-65
2021/08/29 20:00:54;;;;;;;6.10;2.50;;;29.40;33.50;;;;;;20955199;27;81728;-68
2021/08/29 20:10:56;;;;;;;6.13;2.40;;;29.20;34.00;;;;;;20938460;27;81519;-68
2021/08/29 20:20:57;;;;;;;8.23;2.53;;;29.00;34.40;;;;;;20934802;27;81572;-68
2021/08/29 20:30:58;;;;;;;6.10;2.50;;;28.60;35.00;;;;;;20953779;27;82042;-69
2021/08/29 20:41:00;;;;;;;4.88;2.03;;;28.50;35.40;;;;;;20953239;27;81911;-69
2021/08/29 20:51:04;;;;;;;4.55;2.50;;;28.40;35.50;;;;;;20935299;27;80842;-68
2021/08/29 21:01:05;;;;;;;8.30;2.72;;;28.20;35.80;;;;;;20951726;27;81987;-68
2021/08/29 21:11:07;;;;;;;9.90;2.33;;;28.00;36.00;;;;;;20920944;27;81013;-68
2021/08/29 21:21:08;;;;;;;8.40;3.40;;;27.90;36.10;;;;;;20930648;27;81425;-71
2021/08/29 21:31:10;;;;;;;3.67;2.30;;;27.80;36.20;;;;;;20928285;27;81175;-70
2021/08/29 21:41:11;;;;;;;8.13;2.50;;;27.70;36.50;;;;;;20907216;27;81493;-71
2021/08/29 21:51:13;;;;;;;5.80;2.45;;;27.50;36.80;;;;;;20949675;27;81956;-73
2021/08/29 22:01:14;;;;;;;4.55;2.50;;;27.40;37.10;;;;;;20906747;27;80654;-70
2021/08/29 22:11:16;;;;;;;4.72;2.17;;;27.20;37.30;;;;;;20949939;27;81207;-69
2021/08/29 22:21:18;;;;;;;5.82;1.95;;;27.10;37.40;;;;;;20950624;27;81179;-72
2021/08/29 22:31:19;;;;;;;4.55;1.88;;;27.00;37.60;;;;;;20950166;27;81985;-68
2021/08/29 22:41:21;;;;;;;5.60;2.03;;;26.90;37.80;;;;;;20934826;27;81606;-69
2021/08/29 22:51:22;;;;;;;5.10;2.25;;;26.80;38.00;;;;;;20914529;27;80692;-69
2021/08/29 23:01:24;;;;;;;3.47;2.35;;;26.70;38.00;;;;;;20927944;27;81892;-67
2021/08/29 23:11:25;;;;;;;5.93;2.58;;;26.60;38.20;;;;;;20960554;27;82685;-70
2021/08/29 23:21:27;;;;;;;5.35;2.42;;;26.50;38.60;;;;;;20963434;27;80808;-70
2021/08/29 23:31:28;;;;;;;5.53;2.40;;;26.40;39.10;;;;;;20957398;27;80774;-69
2021/08/29 23:41:30;;;;;;;4.55;2.70;;;26.30;39.20;;;;;;20881303;27;80746;-70
2021/08/29 23:51:32;;;;;;;4.88;2.35;;;26.20;39.70;;;;;;20860202;28;80211;-71
